Time;durP1;ratioP1;P1;durP2;ratioP2;P2;SDS_P1;SDS_P2;PMS_P1;PMS_P2;Temp;Humidity;BMP_temperature;BMP_pressure;BME280_temperature;BME280_humidity;BME280_pressure;Samples;Min_cycle;Max_cycle;Signal;HPM_P1;HPM_P2
2022/07/22 00:00:04;;;;;;;9.40;6.97;;;;;;;;;;5117040;27;20574;-46
2022/07/22 00:02:30;;;;;;;8.85;7.03;;;;;;;;;;5110804;27;20055;-49
2022/07/22 00:04:55;;;;;;;10.48;7.65;;;;;;;;;;5111256;27;20172;-47
2022/07/22 00:07:20;;;;;;;9.05;8.25;;;;;;;;;;5114162;27;20039;-50
2022/07/22 00:09:46;;;;;;;8.68;7.05;;;;;;;;;;5114511;27;20092;-48
2022/07/22 00:12:11;;;;;;;8.80;7.63;;;;;;;;;;5119968;27;20122;-49
2022/07/22 00:14:37;;;;;;;9.70;8.70;;;;;;;;;;5117835;27;20084;-48
2022/07/22 00:17:02;;;;;;;8.32;7.45;;;;;;;;;;5110090;28;20590;-49
2022/07/22 00:19:28;;;;;;;8.82;7.95;;;;;;;;;;5114460;27;20043;-49
2022/07/22 00:21:53;;;;;;;8.57;7.60;;;;;;;;;;5114567;27;20502;-49
2022/07/22 00:24:18;;;;;;;8.55;7.32;;;;;;;;;;5114530;27;20582;-50
2022/07/22 00:26:44;;;;;;;8.73;7.72;;;;;;;;;;5119383;27;20748;-52
2022/07/22 00:29:10;;;;;;;6.90;6.25;;;;;;;;;;5094861;28;20043;-50
2022/07/22 00:31:35;;;;;;;9.10;8.15;;;;;;;;;;5114389;27;20048;-51
2022/07/22 00:34:01;;;;;;;8.00;7.28;;;;;;;;;;5117743;27;20510;-50
2022/07/22 00:36:27;;;;;;;8.20;7.18;;;;;;;;;;5112912;27;20449;-51
2022/07/22 00:38:52;;;;;;;10.18;7.72;;;;;;;;;;5112792;27;20470;-49
2022/07/22 00:41:17;;;;;;;15.02;8.80;;;;;;;;;;5112826;27;20062;-49
2022/07/22 00:43:53;;;;;;;11.32;7.78;;;;;;;;;;5079379;28;20324;-52
2022/07/22 00:46:19;;;;;;;10.20;8.02;;;;;;;;;;5116818;27;20042;-50
2022/07/22 00:48:45;;;;;;;12.05;7.70;;;;;;;;;;5115772;28;20052;-48
2022/07/22 00:51:10;;;;;;;8.02;7.25;;;;;;;;;;5115159;27;20075;-48
2022/07/22 00:53:36;;;;;;;9.02;8.13;;;;;;;;;;5116723;27;20044;-50
2022/07/22 00:56:04;;;;;;;9.75;7.35;;;;;;;;;;5117019;27;20623;-51
2022/07/22 00:58:30;;;;;;;8.13;6.82;;;;;;;;;;5115928;27;20032;-49
2022/07/22 01:00:55;;;;;;;9.48;7.10;;;;;;;;;;5113351;27;20047;-52
2022/07/22 01:03:20;;;;;;;8.10;7.30;;;;;;;;;;5116672;27;20112;-51
2022/07/22 01:05:46;;;;;;;8.55;7.63;;;;;;;;;;5116938;27;20547;-48
2022/07/22 01:08:11;;;;;;;9.02;7.57;;;;;;;;;;5118539;27;20039;-50
2022/07/22 01:10:36;;;;;;;11.55;8.07;;;;;;;;;;5120187;27;20069;-52
2022/07/22 01:13:02;;;;;;;7.68;6.90;;;;;;;;;;5114201;27;20052;-52
2022/07/22 01:15:27;;;;;;;8.30;7.60;;;;;;;;;;5117883;27;20118;-53
2022/07/22 01:17:53;;;;;;;17.00;7.72;;;;;;;;;;5115990;27;20042;-48
2022/07/22 01:20:18;;;;;;;10.70;8.15;;;;;;;;;;5113453;27;20039;-50
2022/07/22 01:22:44;;;;;;;11.82;8.57;;;;;;;;;;5113098;27;20051;-53
2022/07/22 01:25:10;;;;;;;11.43;9.00;;;;;;;;;;5114926;27;20548;-49
2022/07/22 01:27:36;;;;;;;8.05;7.20;;;;;;;;;;5117726;27;20067;-50
2022/07/22 01:30:01;;;;;;;14.13;8.73;;;;;;;;;;5115480;27;20043;-50
2022/07/22 01:32:27;;;;;;;12.80;8.45;;;;;;;;;;5112713;27;20043;-50
2022/07/22 01:34:52;;;;;;;8.43;7.25;;;;;;;;;;5116523;27;20073;-48
2022/07/22 01:37:17;;;;;;;10.55;8.52;;;;;;;;;;5113724;27;20547;-49
2022/07/22 01:39:43;;;;;;;10.15;7.88;;;;;;;;;;5112286;28;20102;-49
2022/07/22 01:42:08;;;;;;;8.20;7.38;;;;;;;;;;5111292;27;20487;-47
2022/07/22 01:44:33;;;;;;;9.90;7.15;;;;;;;;;;5108065;27;20056;-47
2022/07/22 01:46:59;;;;;;;8.23;7.38;;;;;;;;;;5116543;27;20065;-47
2022/07/22 01:49:24;;;;;;;7.85;6.20;;;;;;;;;;5114679;27;20051;-52
2022/07/22 01:51:49;;;;;;;7.15;6.50;;;;;;;;;;5112619;28;20055;-49
2022/07/22 01:54:15;;;;;;;9.23;7.57;;;;;;;;;;5117770;27;20051;-50
2022/07/22 01:56:40;;;;;;;8.43;7.63;;;;;;;;;;5116270;27;20621;-49
2022/07/22 01:59:07;;;;;;;17.02;7.22;;;;;;;;;;5117312;27;20078;-50
2022/07/22 02:01:32;;;;;;;10.70;6.97;;;;;;;;;;5108675;27;20468;-47
2022/07/22 02:03:58;;;;;;;9.23;6.05;;;;;;;;;;5116790;27;20612;-49
2022/07/22 02:06:23;;;;;;;34.55;8.57;;;;;;;;;;5112515;27;20138;-49
2022/07/22 02:08:48;;;;;;;6.35;5.70;;;;;;;;;;5111021;27;20141;-47
2022/07/22 02:11:17;;;;;;;8.90;6.63;;;;;;;;;;5113814;27;20047;-47
2022/07/22 02:13:43;;;;;;;12.50;8.07;;;;;;;;;;5114134;27;20762;-47
2022/07/22 02:16:08;;;;;;;8.95;7.90;;;;;;;;;;5111522;28;20128;-48
2022/07/22 02:18:33;;;;;;;8.18;7.30;;;;;;;;;;5114174;27;20031;-48
2022/07/22 02:20:59;;;;;;;11.02;7.93;;;;;;;;;;5114293;27;20079;-48
2022/07/22 02:23:24;;;;;;;7.82;6.80;;;;;;;;;;5116565;27;20087;-50
2022/07/22 02:25:49;;;;;;;9.73;7.65;;;;;;;;;;5112149;27;20035;-50
2022/07/22 02:28:15;;;;;;;10.52;8.88;;;;;;;;;;5110026;27;20043;-51
2022/07/22 02:30:40;;;;;;;7.57;6.78;;;;;;;;;;5113084;27;20055;-51
2022/07/22 02:33:05;;;;;;;14.57;6.53;;;;;;;;;;5112889;27;20044;-50
2022/07/22 02:35:31;;;;;;;9.18;7.95;;;;;;;;;;5118877;27;20050;-51
2022/07/22 02:37:56;;;;;;;9.00;8.13;;;;;;;;;;5112797;28;20495;-51
2022/07/22 02:40:21;;;;;;;13.70;7.75;;;;;;;;;;5111933;28;20116;-51
2022/07/22 02:42:47;;;;;;;10.95;8.77;;;;;;;;;;5116966;27;20775;-49
2022/07/22 02:45:12;;;;;;;9.25;8.20;;;;;;;;;;5115901;27;20051;-52
2022/07/22 02:47:52;;;;;;;9.55;7.47;;;;;;;;;;5111817;27;20082;-47
2022/07/22 02:50:18;;;;;;;6.85;6.22;;;;;;;;;;5109076;27;20046;-52
2022/07/22 02:52:43;;;;;;;13.75;9.13;;;;;;;;;;5113433;28;20043;-49
2022/07/22 02:55:09;;;;;;;14.43;8.30;;;;;;;;;;5116003;28;20031;-52
2022/07/22 02:57:34;;;;;;;7.90;7.18;;;;;;;;;;5114142;27;20490;-46
2022/07/22 02:59:59;;;;;;;8.38;7.68;;;;;;;;;;5106801;27;20053;-53
2022/07/22 03:02:25;;;;;;;8.32;7.45;;;;;;;;;;5111832;27;20043;-56
2022/07/22 03:04:51;;;;;;;14.70;8.75;;;;;;;;;;5116284;27;20090;-53
2022/07/22 03:07:16;;;;;;;13.75;7.28;;;;;;;;;;5117987;27;20047;-48
2022/07/22 03:09:41;;;;;;;12.05;8.20;;;;;;;;;;5115672;27;20042;-48
2022/07/22 03:12:07;;;;;;;17.42;8.70;;;;;;;;;;5113770;27;20047;-47
2022/07/22 03:14:32;;;;;;;12.50;7.95;;;;;;;;;;5110893;27;20043;-51
2022/07/22 03:16:57;;;;;;;17.10;9.00;;;;;;;;;;5111325;27;20066;-45
2022/07/22 03:19:23;;;;;;;8.98;7.30;;;;;;;;;;5115470;27;20066;-52
2022/07/22 03:21:48;;;;;;;9.43;7.40;;;;;;;;;;5112700;27;20437;-52
2022/07/22 03:24:13;;;;;;;22.25;10.40;;;;;;;;;;5111076;27;20138;-51
2022/07/22 03:26:39;;;;;;;10.18;8.02;;;;;;;;;;5115569;27;20070;-52
2022/07/22 03:29:04;;;;;;;9.38;8.48;;;;;;;;;;5113841;27;20060;-48
2022/07/22 03:31:29;;;;;;;10.38;7.30;;;;;;;;;;5115092;27;20051;-49
2022/07/22 03:33:55;;;;;;;14.15;9.32;;;;;;;;;;5117245;27;20052;-51
2022/07/22 03:36:20;;;;;;;11.32;8.70;;;;;;;;;;5114515;27;20089;-50
2022/07/22 03:38:45;;;;;;;13.15;9.65;;;;;;;;;;5116417;27;20059;-48
2022/07/22 03:41:11;;;;;;;11.15;10.05;;;;;;;;;;5117663;28;20040;-50
2022/07/22 03:43:36;;;;;;;9.32;8.27;;;;;;;;;;5120056;27;20050;-49
2022/07/22 03:46:01;;;;;;;16.48;8.07;;;;;;;;;;5120069;27;20042;-48
2022/07/22 03:48:27;;;;;;;9.27;8.38;;;;;;;;;;5116344;27;20047;-49
2022/07/22 03:50:52;;;;;;;9.80;8.65;;;;;;;;;;5111259;27;20099;-48
2022/07/22 03:53:17;;;;;;;10.98;8.68;;;;;;;;;;5112099;27;20490;-48
2022/07/22 03:55:43;;;;;;;14.65;10.40;;;;;;;;;;5114199;27;20043;-49
2022/07/22 03:58:10;;;;;;;9.55;8.65;;;;;;;;;;5119698;27;20079;-48
2022/07/22 04:00:36;;;;;;;8.60;7.75;;;;;;;;;;5113249;27;20051;-47
2022/07/22 04:03:01;;;;;;;10.70;7.63;;;;;;;;;;5117585;27;20039;-48
2022/07/22 04:05:26;;;;;;;11.73;8.57;;;;;;;;;;5116133;27;20035;-52
2022/07/22 04:07:52;;;;;;;12.25;9.30;;;;;;;;;;5117461;27;20452;-48
2022/07/22 04:10:17;;;;;;;7.47;6.78;;;;;;;;;;5118020;27;20127;-49
2022/07/22 04:12:42;;;;;;;9.52;6.50;;;;;;;;;;5117432;27;20052;-47
2022/07/22 04:15:08;;;;;;;8.18;7.38;;;;;;;;;;5113753;27;20123;-52
2022/07/22 04:17:34;;;;;;;15.23;8.13;;;;;;;;;;5116092;27;20500;-53
2022/07/22 04:20:00;;;;;;;8.65;7.85;;;;;;;;;;5117244;27;20047;-48
2022/07/22 04:22:26;;;;;;;7.13;6.45;;;;;;;;;;5117442;27;20051;-49
2022/07/22 04:24:51;;;;;;;10.13;7.70;;;;;;;;;;5115325;27;20040;-45
2022/07/22 04:27:16;;;;;;;8.63;7.25;;;;;;;;;;5114058;27;20112;-47
2022/07/22 04:29:42;;;;;;;8.32;7.60;;;;;;;;;;5112656;27;20039;-45
2022/07/22 04:32:07;;;;;;;10.25;9.23;;;;;;;;;;5113449;27;20095;-50
2022/07/22 04:34:33;;;;;;;9.57;8.65;;;;;;;;;;5117250;27;20418;-47
2022/07/22 04:36:58;;;;;;;8.35;7.55;;;;;;;;;;5116369;27;20685;-49
2022/07/22 04:39:23;;;;;;;8.85;8.00;;;;;;;;;;5110569;27;20138;-49
2022/07/22 04:41:49;;;;;;;7.65;6.85;;;;;;;;;;5115014;27;20088;-49
2022/07/22 04:44:14;;;;;;;14.32;8.65;;;;;;;;;;5114581;27;20047;-50
2022/07/22 04:46:42;;;;;;;9.98;7.97;;;;;;;;;;5115261;27;20111;-51
2022/07/22 04:49:07;;;;;;;9.13;8.23;;;;;;;;;;5113167;28;20506;-54
2022/07/22 04:51:33;;;;;;;12.45;8.90;;;;;;;;;;5115456;27;20093;-52
2022/07/22 04:53:58;;;;;;;7.28;6.57;;;;;;;;;;5118288;27;20039;-49
2022/07/22 04:56:23;;;;;;;8.63;6.97;;;;;;;;;;5117847;27;20055;-46
2022/07/22 04:58:49;;;;;;;8.00;7.30;;;;;;;;;;5114447;27;20104;-48
2022/07/22 05:01:21;;;;;;;10.88;7.95;;;;;;;;;;5112069;28;20526;-51
2022/07/22 05:03:49;;;;;;;14.02;7.47;;;;;;;;;;5115560;27;20051;-46
2022/07/22 05:06:14;;;;;;;12.50;8.80;;;;;;;;;;5113795;27;20051;-47
2022/07/22 05:08:39;;;;;;;9.77;8.88;;;;;;;;;;5113082;27;20051;-48
2022/07/22 05:11:06;;;;;;;11.93;8.13;;;;;;;;;;5113342;28;20640;-47
2022/07/22 05:13:31;;;;;;;9.70;8.00;;;;;;;;;;5116634;28;20039;-46
2022/07/22 05:15:56;;;;;;;8.60;7.78;;;;;;;;;;5118035;27;20043;-50
2022/07/22 05:18:22;;;;;;;19.45;8.85;;;;;;;;;;5117267;27;20055;-51
2022/07/22 05:20:47;;;;;;;12.02;8.27;;;;;;;;;;5115863;27;20040;-46
2022/07/22 05:23:12;;;;;;;18.42;12.13;;;;;;;;;;5114480;28;20063;-47
2022/07/22 05:25:38;;;;;;;18.73;10.55;;;;;;;;;;5113567;27;20578;-49
2022/07/22 05:28:03;;;;;;;11.88;8.75;;;;;;;;;;5112610;27;20043;-51
2022/07/22 05:30:29;;;;;;;36.13;14.15;;;;;;;;;;5113440;27;20084;-50
2022/07/22 05:32:55;;;;;;;14.05;9.35;;;;;;;;;;5109083;28;20036;-50
2022/07/22 05:35:20;;;;;;;13.10;10.40;;;;;;;;;;5116485;27;20045;-48
2022/07/22 05:37:46;;;;;;;32.55;11.23;;;;;;;;;;5117020;28;20098;-50
2022/07/22 05:40:11;;;;;;;14.55;9.25;;;;;;;;;;5113539;27;20051;-47
2022/07/22 05:42:37;;;;;;;10.95;9.48;;;;;;;;;;5113135;28;20051;-50
2022/07/22 05:45:02;;;;;;;8.98;7.97;;;;;;;;;;5110848;27;20103;-50
2022/07/22 05:47:27;;;;;;;9.73;8.25;;;;;;;;;;5117086;27;20051;-51
2022/07/22 05:49:53;;;;;;;13.93;9.63;;;;;;;;;;5112018;28;20081;-49
2022/07/22 05:52:18;;;;;;;12.68;8.50;;;;;;;;;;5115660;27;20092;-53
2022/07/22 05:54:43;;;;;;;11.60;8.93;;;;;;;;;;5107717;28;20183;-48
2022/07/22 05:57:09;;;;;;;12.50;8.52;;;;;;;;;;5108516;27;20100;-50
2022/07/22 05:59:35;;;;;;;11.60;7.53;;;;;;;;;;5113450;27;20043;-49
2022/07/22 06:02:00;;;;;;;14.50;11.63;;;;;;;;;;5115747;27;20043;-52
2022/07/22 06:04:26;;;;;;;10.35;8.38;;;;;;;;;;5111661;27;20131;-48
2022/07/22 06:06:52;;;;;;;8.68;7.80;;;;;;;;;;5110129;27;20146;-51
2022/07/22 06:09:17;;;;;;;13.13;8.43;;;;;;;;;;5112101;27;20044;-48
2022/07/22 06:11:42;;;;;;;15.85;8.23;;;;;;;;;;5112632;27;20050;-50
2022/07/22 06:14:07;;;;;;;9.35;8.40;;;;;;;;;;5116475;27;20050;-50
2022/07/22 06:16:34;;;;;;;11.15;9.88;;;;;;;;;;5118794;27;20053;-52
2022/07/22 06:19:00;;;;;;;8.95;8.05;;;;;;;;;;5113223;27;20044;-48
2022/07/22 06:21:25;;;;;;;12.18;8.30;;;;;;;;;;5112151;28;20172;-51
2022/07/22 06:23:50;;;;;;;10.68;7.63;;;;;;;;;;5108668;27;20134;-50
2022/07/22 06:26:16;;;;;;;8.85;7.50;;;;;;;;;;5115763;27;20044;-48
2022/07/22 06:28:41;;;;;;;7.93;7.22;;;;;;;;;;5114053;27;20179;-49
2022/07/22 06:31:06;;;;;;;10.20;9.23;;;;;;;;;;5114964;27;20135;-49
2022/07/22 06:33:33;;;;;;;8.57;7.15;;;;;;;;;;5093873;28;20255;-51
2022/07/22 06:35:58;;;;;;;7.35;6.57;;;;;;;;;;5113917;27;20052;-50
2022/07/22 06:38:24;;;;;;;6.97;6.32;;;;;;;;;;5111919;28;20073;-51
2022/07/22 06:40:49;;;;;;;9.43;8.40;;;;;;;;;;5110337;27;20031;-48
2022/07/22 06:43:14;;;;;;;18.08;8.70;;;;;;;;;;5090191;28;20086;-50
2022/07/22 06:45:40;;;;;;;11.95;7.97;;;;;;;;;;5112543;27;20066;-48
2022/07/22 06:48:05;;;;;;;19.35;12.32;;;;;;;;;;5108727;28;20577;-50
2022/07/22 06:50:30;;;;;;;20.98;12.52;;;;;;;;;;5112275;27;20050;-50
2022/07/22 06:52:56;;;;;;;28.95;18.70;;;;;;;;;;5113881;27;20130;-50
2022/07/22 06:55:21;;;;;;;40.60;21.50;;;;;;;;;;5112757;27;20142;-50
2022/07/22 06:57:46;;;;;;;45.05;20.83;;;;;;;;;;5115128;27;20049;-51
2022/07/22 07:00:12;;;;;;;15.73;14.07;;;;;;;;;;5111589;27;20044;-51
2022/07/22 07:02:37;;;;;;;18.50;11.25;;;;;;;;;;5113321;27;20408;-49
2022/07/22 07:05:03;;;;;;;22.85;7.57;;;;;;;;;;5111158;27;20897;-50
2022/07/22 07:07:28;;;;;;;16.65;7.30;;;;;;;;;;5112126;27;20036;-47
2022/07/22 07:09:53;;;;;;;7.53;6.20;;;;;;;;;;5112195;27;20311;-46
2022/07/22 07:12:19;;;;;;;10.82;7.00;;;;;;;;;;5111141;27;20044;-46
2022/07/22 07:14:44;;;;;;;8.85;6.65;;;;;;;;;;5114875;27;20138;-46
2022/07/22 07:17:09;;;;;;;10.60;7.00;;;;;;;;;;5112833;27;20088;-48
2022/07/22 07:19:35;;;;;;;8.52;6.50;;;;;;;;;;5114053;27;20043;-50
2022/07/22 07:22:00;;;;;;;19.33;6.65;;;;;;;;;;5110761;27;20040;-47
2022/07/22 07:24:25;;;;;;;13.85;8.98;;;;;;;;;;5117181;27;20149;-47
2022/07/22 07:26:50;;;;;;;8.25;5.03;;;;;;;;;;5117310;27;20046;-49
2022/07/22 07:29:16;;;;;;;6.47;5.85;;;;;;;;;;5116403;27;20065;-49
2022/07/22 07:31:41;;;;;;;9.63;5.97;;;;;;;;;;5112178;28;20443;-52
2022/07/22 07:34:06;;;;;;;6.15;4.75;;;;;;;;;;5114873;27;20169;-51
2022/07/22 07:36:32;;;;;;;6.07;5.38;;;;;;;;;;5110986;27;20054;-49
2022/07/22 07:38:57;;;;;;;7.32;6.47;;;;;;;;;;5114744;27;20965;-50
2022/07/22 07:41:22;;;;;;;7.13;6.25;;;;;;;;;;5116261;27;20383;-50
2022/07/22 07:43:48;;;;;;;9.27;5.55;;;;;;;;;;5112689;27;20043;-48
2022/07/22 07:46:13;;;;;;;8.70;6.95;;;;;;;;;;5110448;27;20082;-51
2022/07/22 07:48:39;;;;;;;10.27;5.93;;;;;;;;;;5112177;28;20060;-50
2022/07/22 07:51:05;;;;;;;5.22;4.32;;;;;;;;;;5113612;27;20389;-47
2022/07/22 07:53:30;;;;;;;6.93;5.88;;;;;;;;;;5113923;27;20070;-49
2022/07/22 07:55:55;;;;;;;12.52;7.63;;;;;;;;;;5114439;27;20802;-49
2022/07/22 07:58:21;;;;;;;7.07;6.32;;;;;;;;;;5114034;27;20554;-52
2022/07/22 08:00:46;;;;;;;7.93;6.55;;;;;;;;;;5109202;27;20514;-50
2022/07/22 08:03:12;;;;;;;11.50;7.22;;;;;;;;;;5113924;27;20043;-51
2022/07/22 08:05:38;;;;;;;8.48;6.13;;;;;;;;;;5114629;27;20070;-52
2022/07/22 08:08:04;;;;;;;7.20;6.50;;;;;;;;;;5115506;27;20515;-53
2022/07/22 08:10:29;;;;;;;8.38;7.10;;;;;;;;;;5112142;27;20035;-48
2022/07/22 08:12:57;;;;;;;12.45;7.65;;;;;;;;;;5108786;27;20043;-48
2022/07/22 08:15:23;;;;;;;7.95;7.15;;;;;;;;;;5110987;27;20040;-47
2022/07/22 08:17:48;;;;;;;5.97;5.45;;;;;;;;;;5113832;28;20523;-49
2022/07/22 08:20:13;;;;;;;11.35;8.45;;;;;;;;;;5120040;27;20052;-49
2022/07/22 08:22:39;;;;;;;5.32;4.82;;;;;;;;;;5116298;27;20100;-52
2022/07/22 08:25:04;;;;;;;5.35;4.85;;;;;;;;;;5114022;27;20059;-52
2022/07/22 08:27:29;;;;;;;8.48;6.22;;;;;;;;;;5119860;27;20032;-51
2022/07/22 08:29:55;;;;;;;10.98;5.68;;;;;;;;;;5113400;27;20051;-50
2022/07/22 08:32:21;;;;;;;8.73;4.57;;;;;;;;;;5115546;27;20135;-51
2022/07/22 08:34:46;;;;;;;5.32;3.63;;;;;;;;;;5114052;27;20510;-50
2022/07/22 08:37:12;;;;;;;6.88;4.60;;;;;;;;;;5116931;28;20158;-52
2022/07/22 08:39:37;;;;;;;5.40;4.38;;;;;;;;;;5115275;27;20134;-50
2022/07/22 08:42:03;;;;;;;4.38;3.53;;;;;;;;;;5114995;27;20035;-51
2022/07/22 08:44:29;;;;;;;4.18;3.25;;;;;;;;;;5114598;27;20043;-49
2022/07/22 08:46:54;;;;;;;7.90;4.68;;;;;;;;;;5116132;27;20505;-53
2022/07/22 08:49:20;;;;;;;4.85;3.63;;;;;;;;;;5099267;28;20059;-47
2022/07/22 08:51:45;;;;;;;6.47;5.03;;;;;;;;;;5113074;28;20099;-51
2022/07/22 08:54:10;;;;;;;3.63;3.05;;;;;;;;;;5113968;27;20528;-49
2022/07/22 08:56:37;;;;;;;6.32;5.75;;;;;;;;;;5114352;27;20130;-51
2022/07/22 08:59:03;;;;;;;5.65;5.10;;;;;;;;;;5113940;27;20042;-52
2022/07/22 09:01:28;;;;;;;4.93;4.20;;;;;;;;;;5119804;28;20055;-46
2022/07/22 09:03:55;;;;;;;5.50;3.75;;;;;;;;;;5119275;27;20052;-49
2022/07/22 09:06:22;;;;;;;4.20;3.53;;;;;;;;;;5114515;27;20050;-54
2022/07/22 09:08:50;;;;;;;5.72;4.57;;;;;;;;;;5116274;27;20100;-52
2022/07/22 09:11:19;;;;;;;6.53;4.57;;;;;;;;;;5116488;27;20047;-50
2022/07/22 09:13:45;;;;;;;6.00;4.10;;;;;;;;;;5112055;28;20077;-51
2022/07/22 09:16:10;;;;;;;3.65;2.88;;;;;;;;;;5113781;28;20051;-53
2022/07/22 09:18:46;;;;;;;5.50;3.88;;;;;;;;;;5112492;27;20113;-49
2022/07/22 09:21:13;;;;;;;4.93;2.95;;;;;;;;;;5117541;28;20047;-49
2022/07/22 09:23:40;;;;;;;6.63;4.10;;;;;;;;;;5115022;27;20051;-50
2022/07/22 09:26:05;;;;;;;5.03;4.43;;;;;;;;;;5114682;27;20490;-50
2022/07/22 09:28:30;;;;;;;5.13;3.70;;;;;;;;;;5112051;27;20044;-50
2022/07/22 09:30:56;;;;;;;15.70;5.53;;;;;;;;;;5112287;27;20098;-52
2022/07/22 09:33:22;;;;;;;5.68;4.90;;;;;;;;;;5111120;27;20720;-50
2022/07/22 09:35:48;;;;;;;7.85;5.43;;;;;;;;;;5110069;27;20066;-52
2022/07/22 09:38:14;;;;;;;7.57;6.35;;;;;;;;;;5118779;27;20490;-49
2022/07/22 09:40:41;;;;;;;7.90;3.92;;;;;;;;;;5106329;27;20068;-51
2022/07/22 09:43:11;;;;;;;5.60;3.97;;;;;;;;;;5115982;27;20134;-51
2022/07/22 09:45:43;;;;;;;12.15;5.07;;;;;;;;;;5112940;27;20043;-52
2022/07/22 09:48:08;;;;;;;4.75;4.15;;;;;;;;;;5111291;27;20046;-48
2022/07/22 09:50:34;;;;;;;7.15;5.22;;;;;;;;;;5115106;27;20457;-50
2022/07/22 09:53:00;;;;;;;8.20;5.38;;;;;;;;;;5109132;27;20071;-50
2022/07/22 09:55:26;;;;;;;6.38;4.97;;;;;;;;;;5116136;27;20199;-48
2022/07/22 09:57:52;;;;;;;8.10;6.00;;;;;;;;;;5115974;27;20076;-50
2022/07/22 10:00:20;;;;;;;7.47;4.95;;;;;;;;;;5112247;27;20470;-53
2022/07/22 10:02:49;;;;;;;11.02;4.90;;;;;;;;;;5113872;28;20130;-50
2022/07/22 10:05:16;;;;;;;9.03;4.70;;;;;;;;;;5114634;27;20052;-51
2022/07/22 10:07:42;;;;;;;8.52;6.25;;;;;;;;;;5111650;28;20127;-52
2022/07/22 10:10:09;;;;;;;8.40;5.95;;;;;;;;;;5110992;28;20059;-52
2022/07/22 10:12:35;;;;;;;4.18;3.78;;;;;;;;;;5113894;27;20047;-55
2022/07/22 10:15:01;;;;;;;6.32;4.78;;;;;;;;;;5115080;27;20101;-47
2022/07/22 10:17:26;;;;;;;19.75;4.90;;;;;;;;;;5112345;27;20418;-54
2022/07/22 10:19:52;;;;;;;6.32;3.85;;;;;;;;;;5114245;27;20086;-50
2022/07/22 10:22:35;;;;;;;7.35;5.85;;;;;;;;;;5111326;27;20039;-47
2022/07/22 10:25:01;;;;;;;5.20;3.55;;;;;;;;;;5114916;27;20111;-50
2022/07/22 10:27:45;;;;;;;6.97;5.90;;;;;;;;;;5112314;28;20047;-50
2022/07/22 10:30:11;;;;;;;9.07;7.13;;;;;;;;;;5109563;27;20036;-54
2022/07/22 10:32:36;;;;;;;5.00;4.32;;;;;;;;;;5114837;28;20086;-52
2022/07/22 10:35:03;;;;;;;13.75;5.32;;;;;;;;;;5115156;27;20042;-47
2022/07/22 10:37:34;;;;;;;5.32;4.80;;;;;;;;;;5113909;27;20118;-53
2022/07/22 10:40:08;;;;;;;7.35;5.35;;;;;;;;;;5113353;27;20182;-53
2022/07/22 10:42:52;;;;;;;7.85;5.78;;;;;;;;;;5110044;27;20054;-47
2022/07/22 10:45:18;;;;;;;8.98;6.28;;;;;;;;;;5114936;27;20047;-53
2022/07/22 10:48:00;;;;;;;30.02;6.70;;;;;;;;;;5112913;27;20047;-52
2022/07/22 10:50:37;;;;;;;3.83;2.80;;;;;;;;;;5112110;27;20097;-50
2022/07/22 10:53:06;;;;;;;4.38;3.97;;;;;;;;;;5114237;27;20043;-50
2022/07/22 10:55:32;;;;;;;7.63;4.40;;;;;;;;;;5115320;27;20060;-51
2022/07/22 10:57:57;;;;;;;6.70;4.63;;;;;;;;;;5111695;27;20035;-49
2022/07/22 11:00:23;;;;;;;11.05;5.32;;;;;;;;;;5113344;27;20142;-53
2022/07/22 11:02:48;;;;;;;5.70;3.85;;;;;;;;;;5116467;27;20119;-48
2022/07/22 11:05:14;;;;;;;7.50;4.72;;;;;;;;;;5113446;28;20406;-50
2022/07/22 11:07:42;;;;;;;5.40;3.78;;;;;;;;;;5110805;28;20047;-50
2022/07/22 11:10:15;;;;;;;12.75;4.85;;;;;;;;;;5113632;27;20111;-50
2022/07/22 11:12:41;;;;;;;3.53;2.58;;;;;;;;;;5114749;27;20092;-52
2022/07/22 11:15:07;;;;;;;5.93;4.78;;;;;;;;;;5115803;27;20039;-51
2022/07/22 11:17:34;;;;;;;4.57;3.85;;;;;;;;;;5111461;28;20085;-47
2022/07/22 11:20:04;;;;;;;8.48;3.58;;;;;;;;;;5115616;27;20577;-53
2022/07/22 11:22:30;;;;;;;4.75;3.92;;;;;;;;;;5112837;28;20047;-50
2022/07/22 11:24:55;;;;;;;11.00;3.10;;;;;;;;;;5114224;27;20198;-49
2022/07/22 11:27:25;;;;;;;26.42;5.50;;;;;;;;;;5109005;28;20069;-51
2022/07/22 11:29:52;;;;;;;6.40;3.90;;;;;;;;;;5114240;28;20055;-51
2022/07/22 11:32:18;;;;;;;8.43;5.93;;;;;;;;;;5113716;27;20051;-52
2022/07/22 11:34:46;;;;;;;6.28;4.13;;;;;;;;;;5108451;27;20126;-51
2022/07/22 11:37:11;;;;;;;4.20;3.03;;;;;;;;;;5112387;27;20071;-51
2022/07/22 11:39:37;;;;;;;4.13;3.15;;;;;;;;;;5113161;27;20664;-53
2022/07/22 11:42:03;;;;;;;5.70;4.53;;;;;;;;;;5109624;27;20044;-51
2022/07/22 11:44:32;;;;;;;9.30;4.18;;;;;;;;;;5113113;27;20189;-51
2022/07/22 11:47:00;;;;;;;5.30;4.00;;;;;;;;;;5113337;27;20085;-52
2022/07/22 11:49:29;;;;;;;4.82;3.53;;;;;;;;;;5113554;28;20089;-52
2022/07/22 11:51:55;;;;;;;6.28;2.95;;;;;;;;;;5112585;27;20039;-47
2022/07/22 11:54:20;;;;;;;4.55;3.03;;;;;;;;;;5115480;27;20098;-50
2022/07/22 11:56:46;;;;;;;6.38;5.78;;;;;;;;;;5115329;27;20157;-53
2022/07/22 11:59:12;;;;;;;5.15;3.83;;;;;;;;;;5113975;27;20194;-53
2022/07/22 12:01:37;;;;;;;8.38;4.07;;;;;;;;;;5114242;27;20034;-52
2022/07/22 12:04:07;;;;;;;6.30;4.72;;;;;;;;;;5114451;28;20058;-52
2022/07/22 12:06:37;;;;;;;4.72;3.88;;;;;;;;;;5116320;27;20131;-53
2022/07/22 12:09:09;;;;;;;6.50;5.80;;;;;;;;;;5113033;28;20042;-50
2022/07/22 12:11:36;;;;;;;9.18;4.82;;;;;;;;;;5117582;27;20056;-51
2022/07/22 12:14:07;;;;;;;3.13;1.95;;;;;;;;;;5113835;27;20042;-51
2022/07/22 12:16:32;;;;;;;5.75;3.15;;;;;;;;;;5112608;27;20046;-49
2022/07/22 12:19:04;;;;;;;3.47;3.03;;;;;;;;;;5113744;27;20044;-47
2022/07/22 12:21:31;;;;;;;6.65;4.85;;;;;;;;;;5116739;27;20043;-50
2022/07/22 12:23:59;;;;;;;4.95;3.72;;;;;;;;;;5113425;27;20036;-50
2022/07/22 12:26:37;;;;;;;8.80;6.07;;;;;;;;;;5113608;27;20081;-49
2022/07/22 12:29:13;;;;;;;6.55;4.55;;;;;;;;;;5108185;27;20047;-48
2022/07/22 12:31:52;;;;;;;6.47;4.57;;;;;;;;;;5115308;27;20407;-49
2022/07/22 12:34:29;;;;;;;5.55;4.30;;;;;;;;;;5110528;27;20032;-51
2022/07/22 12:36:54;;;;;;;4.68;3.70;;;;;;;;;;5112648;27;20044;-52
2022/07/22 12:39:19;;;;;;;9.23;3.13;;;;;;;;;;5096913;28;20584;-49
2022/07/22 12:41:49;;;;;;;3.42;2.40;;;;;;;;;;5112060;27;20058;-46
2022/07/22 12:44:17;;;;;;;4.28;3.50;;;;;;;;;;5118181;27;20039;-51
2022/07/22 12:46:46;;;;;;;6.13;4.30;;;;;;;;;;5114609;27;20100;-48
2022/07/22 12:49:12;;;;;;;3.25;2.72;;;;;;;;;;5115240;27;20039;-51
2022/07/22 12:51:37;;;;;;;5.07;4.32;;;;;;;;;;5115892;27;20092;-49
2022/07/22 12:54:02;;;;;;;5.55;4.60;;;;;;;;;;5114981;27;20035;-52
2022/07/22 12:56:28;;;;;;;4.22;3.70;;;;;;;;;;5114191;27;20047;-46
2022/07/22 12:58:53;;;;;;;5.32;4.57;;;;;;;;;;5112591;27;20040;-51
2022/07/22 13:01:18;;;;;;;9.05;3.20;;;;;;;;;;5113623;27;20051;-53
2022/07/22 13:03:44;;;;;;;4.60;3.28;;;;;;;;;;5112941;27;20073;-51
2022/07/22 13:06:10;;;;;;;4.65;3.17;;;;;;;;;;5111224;27;20050;-53
2022/07/22 13:08:36;;;;;;;4.43;3.28;;;;;;;;;;5116574;27;20035;-49
2022/07/22 13:11:02;;;;;;;6.78;4.43;;;;;;;;;;5113697;27;20068;-49
2022/07/22 13:13:27;;;;;;;3.88;3.15;;;;;;;;;;5115999;27;20115;-50
2022/07/22 13:15:53;;;;;;;7.50;5.35;;;;;;;;;;5115644;27;20047;-51
2022/07/22 13:18:18;;;;;;;4.40;3.55;;;;;;;;;;5111219;27;20510;-54
2022/07/22 13:20:44;;;;;;;8.98;4.55;;;;;;;;;;5114245;27;20985;-54
2022/07/22 13:23:09;;;;;;;4.68;4.20;;;;;;;;;;5115932;27;20047;-54
2022/07/22 13:25:35;;;;;;;5.82;5.10;;;;;;;;;;5115519;27;20048;-49
2022/07/22 13:28:01;;;;;;;5.55;4.13;;;;;;;;;;5111349;28;20499;-51
2022/07/22 13:30:26;;;;;;;10.23;3.92;;;;;;;;;;5116201;27;20185;-52
2022/07/22 13:32:52;;;;;;;3.72;2.55;;;;;;;;;;5114603;27;20058;-49
2022/07/22 13:35:17;;;;;;;11.15;4.18;;;;;;;;;;5113656;27;20490;-52
2022/07/22 13:37:43;;;;;;;5.32;4.55;;;;;;;;;;5085061;28;20504;-51
2022/07/22 13:40:09;;;;;;;5.07;3.08;;;;;;;;;;5116137;27;20655;-50
2022/07/22 13:42:34;;;;;;;4.05;3.55;;;;;;;;;;5110309;28;20058;-51
2022/07/22 13:45:00;;;;;;;6.78;4.70;;;;;;;;;;5116864;27;20124;-50
2022/07/22 13:47:26;;;;;;;7.85;4.30;;;;;;;;;;5113718;27;20047;-51
2022/07/22 13:49:52;;;;;;;4.95;3.78;;;;;;;;;;5111681;27;20190;-50
2022/07/22 13:52:18;;;;;;;6.05;3.47;;;;;;;;;;5112108;27;20109;-54
2022/07/22 13:54:44;;;;;;;4.15;3.75;;;;;;;;;;5108616;27;20044;-53
2022/07/22 13:57:10;;;;;;;5.20;4.28;;;;;;;;;;5111584;27;20039;-53
2022/07/22 13:59:35;;;;;;;5.65;4.13;;;;;;;;;;5114171;27;20042;-54
2022/07/22 14:02:01;;;;;;;7.45;4.10;;;;;;;;;;5111534;28;20050;-54
2022/07/22 14:04:27;;;;;;;4.68;4.28;;;;;;;;;;5105910;27;20167;-51
2022/07/22 14:06:52;;;;;;;5.28;4.72;;;;;;;;;;5106953;28;20187;-49
2022/07/22 14:09:17;;;;;;;4.55;4.03;;;;;;;;;;5110849;27;20102;-50
2022/07/22 14:11:43;;;;;;;4.72;3.28;;;;;;;;;;5112309;27;20513;-47
2022/07/22 14:14:08;;;;;;;6.07;4.65;;;;;;;;;;5111399;27;20117;-53
2022/07/22 14:16:35;;;;;;;4.50;4.10;;;;;;;;;;5108784;27;20051;-51
2022/07/22 14:19:02;;;;;;;3.60;3.25;;;;;;;;;;5112771;27;20035;-49
2022/07/22 14:21:28;;;;;;;6.28;3.20;;;;;;;;;;5114754;28;20071;-49
2022/07/22 14:23:53;;;;;;;4.60;3.63;;;;;;;;;;5111831;27;20560;-53
2022/07/22 14:26:19;;;;;;;3.80;3.50;;;;;;;;;;5117509;27;20043;-51
2022/07/22 14:28:44;;;;;;;4.25;3.58;;;;;;;;;;5090754;28;20130;-48
2022/07/22 14:31:09;;;;;;;5.07;4.47;;;;;;;;;;5112942;28;20031;-53